Flight Track Log - Related Links

Times and Time Zones

All times are in EST time to prevent confusion due to time zone crossing. See the USC105 flight status page for this flight to view local times or setup timezone preferences in your user account.

Time Position Orientation Groundspeed Altitude Reporting Facility
EST Latitude Longitude Course Direction KTS MPH feet Rate Location/Type
Tue 02:02:41 AM 41.8633 -88.2181 98° East 117 135 3,600  Level Chicago Center
Tue 02:03:41 AM 41.8486 -88.1711 113° Southeast 136 157 5,000 750 Climbing Chicago Center
Tue 02:04:41 AM 41.8281 -88.1117 115° Southeast 181 208 5,100  Climbing Chicago Center
Tue 02:05:42 AM 41.8094 -88.0419 110° East 197 227 5,000 -50 Descending Chicago Center
Tue 02:06:42 AM 41.7914 -87.9719 109° East 198 228 5,000  Level Chicago Center
Tue 02:07:00 AM 41.7982 -87.8711 152° Southeast  Level Estimated
Tue 02:07:42 AM 41.7714 -87.9025 111° Southeast 199 229 5,000  Level Chicago Center
Tue 02:08:42 AM 41.7522 -87.8331 110° East 199 229 5,000  Level Chicago Center
Tue 02:09:42 AM 41.7325 -87.7631 111° Southeast 199 229 5,000  Level Chicago Center
Tue 02:11:43 AM 41.6933 -87.6247 111° Southeast 197 227 5,000  Level Chicago Center
Tue 02:12:43 AM 41.6742 -87.5558 110° East 197 227 5,000  Level Chicago Center
Tue 02:13:43 AM 41.6547 -87.4869 111° Southeast 198 228 5,000  Level Chicago Center
Tue 02:14:43 AM 41.6353 -87.4181 111° Southeast 198 228 5,000  Level Chicago Center
Tue 02:15:44 AM 41.6156 -87.3489 111° Southeast 199 229 5,000  Level Chicago Center
Tue 02:16:44 AM 41.5961 -87.2800 111° Southeast 200 230 5,000  Level Chicago Center
Tue 02:17:44 AM 41.5767 -87.2131 111° Southeast 196 226 5,000  Level Chicago Center
Tue 02:18:44 AM 41.5569 -87.1458 111° Southeast 193 222 5,000  Level Chicago Center
Tue 02:19:44 AM 41.5381 -87.0767 110° East 198 228 5,000  Level Chicago Center
Tue 02:21:45 AM 41.4981 -86.9400 111° Southeast 198 228 5,000  Level Chicago Center
Tue 02:22:45 AM 41.4794 -86.8739 111° Southeast 191 220 5,000  Level Chicago Center
Tue 02:23:45 AM 41.4594 -86.8061 111° Southeast 197 227 5,000  Level Chicago Center
Tue 02:24:45 AM 41.4392 -86.7386 112° Southeast 197 227 5,000  Level Chicago Center
Tue 02:25:45 AM 41.4219 -86.6800 111° Southeast 196 226 5,000  Level Chicago Center
Tue 02:26:46 AM 41.4014 -86.6111 112° Southeast 199 229 5,000  Level Chicago Center
Tue 02:27:46 AM 41.3831 -86.5453 110° East 194 223 5,000  Level Chicago Center
Tue 02:28:46 AM 41.3631 -86.4772 111° Southeast 197 227 5,000  Level Chicago Center
Tue 02:29:46 AM 41.3431 -86.4092 111° Southeast 197 227 5,000  Level Chicago Center
Tue 02:30:46 AM 41.3214 -86.3408 113° Southeast 200 230 5,000  Level Chicago Center
Tue 02:31:46 AM 41.3019 -86.2736 111° Southeast 198 228 5,000  Level Chicago Center
Tue 02:32:47 AM 41.2781 -86.1933 112° Southeast 196 226 5,000  Level Chicago Center
Tue 02:33:47 AM 41.2561 -86.1247 113° Southeast 200 230 5,000  Level Chicago Center
Tue 02:34:47 AM 41.2369 -86.0575 111° Southeast 197 227 5,000  Level Chicago Center
Tue 02:35:47 AM 41.2156 -85.9889 112° Southeast 200 230 5,000  Level Chicago Center
Tue 02:36:47 AM 41.1953 -85.9211 112° Southeast 200 230 5,000  Level Chicago Center
Tue 02:37:48 AM 41.1750 -85.8539 112° Southeast 198 228 5,000 -99 Level Chicago Center
Tue 02:38:48 AM 41.1550 -85.7867 112° Southeast 198 228 4,800 -250 Descending Chicago Center
Tue 02:39:48 AM 41.1364 -85.7158 109° East 200 230 4,500 -350 Descending Chicago Center
Tue 02:40:48 AM 41.1147 -85.6461 112° Southeast 203 234 4,100 -400 Descending Chicago Center
Tue 02:41:48 AM 41.0942 -85.5789 112° Southeast 202 232 3,700 -400 Descending Chicago Center
Tue 02:42:48 AM 41.0742 -85.5128 112° Southeast 198 228 3,300 -400 Descending Chicago Center
Tue 02:43:48 AM 41.0544 -85.4483 112° Southeast 194 223 2,900 -150 Descending Chicago Center
Tue 02:44:48 AM 41.0364 -85.3872 111° Southeast 188 216 3,000 99 Climbing Chicago Center
Tue 02:45:49 AM 41.0194 -85.3294 111° Southeast 179 206 3,100 -347 Climbing Chicago Center
Tue 02:46:49 AM 41.0169 -85.2733 93° East 166 191 2,300 -750 Descending Chicago Center
Tue 02:47:49 AM 41.0108 -85.2219 99° East 150 173 1,600 -700 Descending Chicago Center
Tue 02:49:00 AM 40.9785 -85.1952 124° Southeast  Level Estimated

Login

Don't have an account? Register now (free) for customized features, flight alerts, and more!